Time,TemperatureF,DewpointF,PressureIn,WindDirection,WindDirectionDegrees,WindSpeedMPH,WindSpeedGustMPH,Humidity,HourlyPrecipIn,Conditions,Clouds,dailyrainin,SoftwareType,DateUTC
2013-03-13 00:05:00,51.1,31.6,29.77,SSE,149,4.5,6.3,47,0.00,,---,0.00,VWS V14.01,2013-03-13 07:05:00,
2013-03-13 00:10:00,51.1,31.6,29.77,SE,144,5.8,5.8,47,0.00,,---,0.00,VWS V14.01,2013-03-13 07:10:00,
2013-03-13 00:17:00,51.1,31.6,29.80,NNW,334,5.4,6.3,47,0.00,,---,0.00,VWS V14.01,2013-03-13 07:17:00,
2013-03-13 00:22:00,51.1,31.6,29.80,East,100,2.2,4.5,47,0.00,,---,0.00,VWS V14.01,2013-03-13 07:22:00,
2013-03-13 00:27:00,51.3,31.2,29.80,NNW,336,4.0,5.8,46,0.00,,---,0.00,VWS V14.01,2013-03-13 07:27:00,
2013-03-13 00:33:00,51.3,31.2,29.80,ESE,112,5.8,5.8,46,0.00,,---,0.00,VWS V14.01,2013-03-13 07:33:00,
2013-03-13 00:38:00,51.3,31.2,29.80,NNW,341,3.1,4.0,46,0.00,,---,0.00,VWS V14.01,2013-03-13 07:38:00,
2013-03-13 00:43:00,51.3,31.2,29.80,NE,50,3.6,11.0,46,0.00,,---,0.00,VWS V14.01,2013-03-13 07:43:00,
2013-03-13 00:48:00,51.3,31.2,29.77,SSE,155,6.3,6.3,46,0.00,,---,0.00,VWS V14.01,2013-03-13 07:48:00,
2013-03-13 00:54:00,51.3,30.7,29.77,NNW,346,6.3,8.7,45,0.00,,---,0.00,VWS V14.01,2013-03-13 07:54:00,
2013-03-13 00:59:00,51.3,30.7,29.77,ENE,63,4.9,8.7,45,0.00,,---,0.00,VWS V14.01,2013-03-13 07:59:00,
2013-03-13 01:04:00,51.3,30.7,29.77,North,9,8.1,12.3,45,0.00,,---,0.00,VWS V14.01,2013-03-13 08:04:00,
2013-03-13 01:09:00,51.4,30.3,29.77,NNW,343,3.1,5.4,44,0.00,,---,0.00,VWS V14.01,2013-03-13 08:09:00,
2013-03-13 01:15:00,51.4,30.3,29.77,WNW,290,5.4,7.2,44,0.00,,---,0.00,VWS V14.01,2013-03-13 08:15:00,
2013-03-13 01:20:00,51.4,30.3,29.77,NNW,327,2.7,11.9,44,0.00,,---,0.00,VWS V14.01,2013-03-13 08:20:00,
2013-03-13 01:26:00,51.3,30.7,29.77,NW,316,3.6,8.7,45,0.00,,---,0.00,VWS V14.01,2013-03-13 08:26:00,
2013-03-13 01:32:00,51.3,31.2,29.77,NNE,15,4.9,14.5,46,0.00,,---,0.00,VWS V14.01,2013-03-13 08:32:00,
2013-03-13 01:37:00,51.1,31.0,29.77,SE,146,4.0,10.5,46,0.00,,---,0.00,VWS V14.01,2013-03-13 08:37:00,
2013-03-13 01:43:00,51.1,31.6,29.77,WNW,283,7.2,7.6,47,0.00,,---,0.00,VWS V14.01,2013-03-13 08:43:00,
2013-03-13 01:48:00,50.9,31.4,29.80,SSW,195,9.6,9.6,47,0.00,,---,0.00,VWS V14.01,2013-03-13 08:48:00,
2013-03-13 01:54:00,50.9,31.4,29.80,WNW,294,4.9,7.6,47,0.00,,---,0.00,VWS V14.01,2013-03-13 08:54:00,
2013-03-13 01:59:00,50.9,31.9,29.80,East,94,2.7,7.6,48,0.00,,---,0.00,VWS V14.01,2013-03-13 08:59:00,
2013-03-13 02:05:00,50.7,31.8,29.80,SW,220,5.4,8.3,48,0.00,,---,0.00,VWS V14.01,2013-03-13 09:05:00,
2013-03-13 02:11:00,50.7,31.8,29.80,SSW,196,5.8,7.6,48,0.00,,---,0.00,VWS V14.01,2013-03-13 09:11:00,
2013-03-13 02:16:00,50.7,32.3,29.80,NNW,339,3.6,6.3,49,0.00,,---,0.00,VWS V14.01,2013-03-13 09:16:00,
2013-03-13 02:21:00,50.7,32.3,29.80,ENE,74,3.6,8.3,49,0.00,,---,0.00,VWS V14.01,2013-03-13 09:21:00,
2013-03-13 02:27:00,50.7,31.8,29.80,North,8,7.2,9.2,48,0.00,,---,0.00,VWS V14.01,2013-03-13 09:27:00,
2013-03-13 02:33:00,50.9,31.9,29.80,West,262,2.7,7.2,48,0.00,,---,0.00,VWS V14.01,2013-03-13 09:33:00,
2013-03-13 02:39:00,50.9,31.4,29.80,SW,229,8.3,8.7,47,0.00,,---,0.00,VWS V14.01,2013-03-13 09:39:00,
2013-03-13 02:44:00,50.9,31.4,29.77,South,185,4.0,6.3,47,0.00,,---,0.00,VWS V14.01,2013-03-13 09:44:00,
2013-03-13 02:50:00,51.1,31.6,29.77,NE,38,2.7,7.6,47,0.00,,---,0.00,VWS V14.01,2013-03-13 09:50:00,
2013-03-13 02:56:00,51.1,31.0,29.77,South,187,6.3,6.3,46,0.00,,---,0.00,VWS V14.01,2013-03-13 09:56:00,
2013-03-13 03:01:00,51.1,31.0,29.80,South,185,2.7,5.4,46,0.00,,---,0.00,VWS V14.01,2013-03-13 10:01:00,
2013-03-13 03:06:00,51.1,31.0,29.80,NNW,340,6.3,6.3,46,0.00,,---,0.00,VWS V14.01,2013-03-13 10:06:00,
2013-03-13 03:12:00,51.1,31.0,29.80,North,357,5.4,5.4,46,0.00,,---,0.00,VWS V14.01,2013-03-13 10:12:00,
2013-03-13 03:17:00,51.1,31.0,29.83,SW,216,8.3,8.3,46,0.00,,---,0.00,VWS V14.01,2013-03-13 10:17:00,
2013-03-13 03:23:00,51.3,30.7,29.83,SSE,163,7.6,7.6,45,0.00,,---,0.00,VWS V14.01,2013-03-13 10:23:00,
2013-03-13 03:29:00,51.3,30.7,29.83,ESE,105,7.2,7.2,45,0.00,,---,0.00,VWS V14.01,2013-03-13 10:29:00,
2013-03-13 03:35:00,51.3,30.7,29.83,NE,36,2.7,5.8,45,0.00,,---,0.00,VWS V14.01,2013-03-13 10:35:00,
2013-03-13 03:40:00,51.3,30.7,29.83,SSW,212,3.6,6.3,45,0.00,,---,0.00,VWS V14.01,2013-03-13 10:40:00,
2013-03-13 03:46:00,51.1,31.0,29.83,SE,130,6.7,7.6,46,0.00,,---,0.00,VWS V14.01,2013-03-13 10:46:00,
2013-03-13 03:52:00,50.9,31.4,29.83,SE,145,5.8,5.8,47,0.00,,---,0.00,VWS V14.01,2013-03-13 10:52:00,
2013-03-13 03:57:00,50.7,31.2,29.83,East,82,3.6,7.6,47,0.00,,---,0.00,VWS V14.01,2013-03-13 10:57:00,
2013-03-13 04:03:00,50.7,31.2,29.80,SW,231,8.3,8.3,47,0.00,,---,0.00,VWS V14.01,2013-03-13 11:03:00,
2013-03-13 04:08:00,50.7,31.8,29.80,West,275,7.2,8.7,48,0.00,,---,0.00,VWS V14.01,2013-03-13 11:08:00,
2013-03-13 04:14:00,50.7,31.8,29.83,NNE,22,5.8,5.8,48,0.00,,---,0.00,VWS V14.01,2013-03-13 11:14:00,
2013-03-13 04:20:00,50.7,31.8,29.83,South,176,6.3,6.3,48,0.00,,---,0.00,VWS V14.01,2013-03-13 11:20:00,
2013-03-13 04:25:00,50.7,31.8,29.83,SSE,168,7.6,15.4,48,0.00,,---,0.00,VWS V14.01,2013-03-13 11:25:00,
2013-03-13 04:31:00,50.7,31.8,29.83,West,277,7.6,14.5,48,0.00,,---,0.00,VWS V14.01,2013-03-13 11:31:00,
2013-03-13 04:36:00,50.7,31.2,29.83,WSW,256,3.6,8.7,47,0.00,,---,0.00,VWS V14.01,2013-03-13 11:36:00,
2013-03-13 04:41:00,50.7,31.2,29.83,ENE,75,2.7,7.6,47,0.00,,---,0.00,VWS V14.01,2013-03-13 11:41:00,
2013-03-13 04:47:00,50.7,31.2,29.80,East,91,6.3,10.1,47,0.00,,---,0.00,VWS V14.01,2013-03-13 11:47:00,
2013-03-13 04:52:00,50.7,31.2,29.80,ESE,105,3.1,7.2,47,0.00,,---,0.00,VWS V14.01,2013-03-13 11:52:00,
2013-03-13 04:57:00,50.7,31.2,29.80,NW,324,12.8,12.8,47,0.00,,---,0.00,VWS V14.01,2013-03-13 11:57:00,
2013-03-13 05:03:00,50.7,31.2,29.83,SSW,201,8.7,11.0,47,0.00,,---,0.00,VWS V14.01,2013-03-13 12:03:00,
2013-03-13 05:09:00,50.7,31.2,29.83,SSW,192,5.8,5.8,47,0.00,,---,0.00,VWS V14.01,2013-03-13 12:09:00,
2013-03-13 05:14:00,50.7,31.2,29.83,SE,135,5.4,11.0,47,0.00,,---,0.00,VWS V14.01,2013-03-13 12:14:00,
2013-03-13 05:20:00,50.5,31.6,29.83,SSW,200,5.4,8.7,48,0.00,,---,0.00,VWS V14.01,2013-03-13 12:20:00,
2013-03-13 05:25:00,50.5,31.6,29.83,SW,226,10.1,10.1,48,0.00,,---,0.00,VWS V14.01,2013-03-13 12:25:00,
2013-03-13 05:30:00,50.4,31.4,29.80,South,175,5.8,6.3,48,0.00,,---,0.00,VWS V14.01,2013-03-13 12:30:00,
2013-03-13 05:37:00,50.4,31.4,29.80,NE,53,8.1,8.1,48,0.00,,---,0.00,VWS V14.01,2013-03-13 12:37:00,
2013-03-13 05:42:00,50.4,31.4,29.80,South,188,5.4,5.8,48,0.00,,---,0.00,VWS V14.01,2013-03-13 12:42:00,
2013-03-13 05:47:00,50.4,31.4,29.83,South,189,10.1,10.1,48,0.00,,---,0.00,VWS V14.01,2013-03-13 12:47:00,
2013-03-13 05:52:00,50.4,31.4,29.83,SE,125,3.1,6.7,48,0.00,,---,0.00,VWS V14.01,2013-03-13 12:52:00,
2013-03-13 05:58:00,50.5,31.6,29.83,East,80,2.7,4.9,48,0.00,,---,0.00,VWS V14.01,2013-03-13 12:58:00,
2013-03-13 06:03:00,50.5,31.6,29.83,South,191,5.4,8.7,48,0.00,,---,0.00,VWS V14.01,2013-03-13 13:03:00,
2013-03-13 06:08:00,50.5,31.6,29.83,North,357,4.0,8.7,48,0.00,,---,0.00,VWS V14.01,2013-03-13 13:08:00,
2013-03-13 06:13:00,50.5,31.6,29.83,North,0,2.7,8.7,48,0.00,,---,0.00,VWS V14.01,2013-03-13 13:13:00,
2013-03-13 06:19:00,50.5,31.6,29.83,South,190,5.8,5.8,48,0.00,,---,0.00,VWS V14.01,2013-03-13 13:19:00,
2013-03-13 06:24:00,50.4,31.4,29.83,ESE,102,4.9,7.6,48,0.00,,---,0.00,VWS V14.01,2013-03-13 13:24:00,
2013-03-13 06:30:00,50.4,31.4,29.83,SSW,204,3.1,8.7,48,0.00,,---,0.00,VWS V14.01,2013-03-13 13:30:00,
2013-03-13 06:35:00,50.4,31.4,29.83,East,82,5.4,8.1,48,0.00,,---,0.00,VWS V14.01,2013-03-13 13:35:00,
2013-03-13 06:40:00,50.4,31.4,29.83,SSW,203,5.4,5.4,48,0.00,,---,0.00,VWS V14.01,2013-03-13 13:40:00,
2013-03-13 06:45:00,50.4,31.4,29.83,South,180,11.9,11.9,48,0.00,,---,0.00,VWS V14.01,2013-03-13 13:45:00,
2013-03-13 06:51:00,50.4,31.4,29.83,South,182,4.0,5.4,48,0.00,,---,0.00,VWS V14.01,2013-03-13 13:51:00,
2013-03-13 06:57:00,50.4,31.4,29.83,South,175,7.6,8.1,48,0.00,,---,0.00,VWS V14.01,2013-03-13 13:57:00,
2013-03-13 07:02:00,50.4,31.4,29.83,South,178,8.1,8.1,48,0.00,,---,0.00,VWS V14.01,2013-03-13 14:02:00,
2013-03-13 07:08:00,50.4,30.9,29.83,NE,39,4.9,6.3,47,0.00,,---,0.00,VWS V14.01,2013-03-13 14:08:00,
2013-03-13 07:13:00,50.4,30.9,29.83,SE,144,3.1,5.4,47,0.00,,---,0.00,VWS V14.01,2013-03-13 14:13:00,
2013-03-13 07:19:00,50.2,30.8,29.83,SSE,162,4.5,7.2,47,0.00,,---,0.00,VWS V14.01,2013-03-13 14:19:00,
2013-03-13 07:24:00,50.2,30.8,29.83,SSW,199,8.1,11.0,47,0.00,,---,0.00,VWS V14.01,2013-03-13 14:24:00,
2013-03-13 07:29:00,50.2,30.8,29.83,SW,217,3.1,3.6,47,0.00,,---,0.00,VWS V14.01,2013-03-13 14:29:00,
2013-03-13 07:34:00,50.2,30.8,29.83,SSW,210,5.8,6.7,47,0.00,,---,0.00,VWS V14.01,2013-03-13 14:34:00,
2013-03-13 07:40:00,50.2,30.8,29.83,SW,217,4.9,5.8,47,0.00,,---,0.00,VWS V14.01,2013-03-13 14:40:00,
2013-03-13 07:45:00,50.2,30.8,29.83,SSW,203,5.4,5.8,47,0.00,,---,0.00,VWS V14.01,2013-03-13 14:45:00,
2013-03-13 07:50:00,50.4,30.9,29.83,SSW,205,5.8,5.8,47,0.00,,---,0.00,VWS V14.01,2013-03-13 14:50:00,
2013-03-13 07:55:00,50.5,31.1,29.83,South,191,4.0,8.7,47,0.00,,---,0.00,VWS V14.01,2013-03-13 14:55:00,
2013-03-13 08:01:00,50.5,31.1,29.83,WNW,291,4.0,5.8,47,0.00,,---,0.00,VWS V14.01,2013-03-13 15:01:00,
2013-03-13 08:06:00,50.5,31.1,29.83,South,184,8.1,8.1,47,0.00,,---,0.00,VWS V14.01,2013-03-13 15:06:00,
2013-03-13 08:12:00,50.7,31.2,29.83,SSW,211,7.6,7.6,47,0.00,,---,0.00,VWS V14.01,2013-03-13 15:12:00,
2013-03-13 08:18:00,50.9,30.9,29.83,SE,130,2.2,3.1,46,0.00,,---,0.00,VWS V14.01,2013-03-13 15:18:00,
2013-03-13 08:23:00,50.9,30.9,29.83,South,175,4.0,7.6,46,0.00,,---,0.00,VWS V14.01,2013-03-13 15:23:00,
2013-03-13 08:29:00,51.1,30.5,29.83,WSW,249,8.1,8.1,45,0.00,,---,0.00,VWS V14.01,2013-03-13 15:29:00,
2013-03-13 08:34:00,51.3,30.1,29.83,South,183,11.0,11.0,44,0.00,,---,0.00,VWS V14.01,2013-03-13 15:34:00,
2013-03-13 08:39:00,51.4,30.3,29.83,SSW,209,5.8,7.6,44,0.00,,---,0.00,VWS V14.01,2013-03-13 15:39:00,
2013-03-13 08:44:00,51.4,30.3,29.83,NE,48,3.1,4.0,44,0.00,,---,0.00,VWS V14.01,2013-03-13 15:44:00,
2013-03-13 08:50:00,51.6,30.4,29.83,SE,128,3.6,7.6,44,0.00,,---,0.00,VWS V14.01,2013-03-13 15:50:00,
2013-03-13 08:55:00,51.6,30.4,29.83,SSW,203,3.6,3.6,44,0.00,,---,0.00,VWS V14.01,2013-03-13 15:55:00,
2013-03-13 09:00:00,51.4,29.7,29.85,West,272,5.8,12.3,43,0.00,,---,0.00,VWS V14.01,2013-03-13 16:00:00,
2013-03-13 09:05:00,51.6,29.9,29.85,WSW,245,5.8,6.3,43,0.00,,---,0.00,VWS V14.01,2013-03-13 16:05:00,
2013-03-13 09:11:00,51.6,29.3,29.85,SE,133,8.7,11.0,42,0.00,,---,0.00,VWS V14.01,2013-03-13 16:11:00,
2013-03-13 09:17:00,51.8,29.5,29.85,NNE,21,3.6,3.6,42,0.00,,---,0.00,VWS V14.01,2013-03-13 16:17:00,
2013-03-13 09:22:00,51.8,29.5,29.85,WSW,253,5.4,5.4,42,0.00,,---,0.00,VWS V14.01,2013-03-13 16:22:00,
2013-03-13 09:28:00,51.8,29.5,29.85,SSW,197,2.7,6.3,42,0.00,,---,0.00,VWS V14.01,2013-03-13 16:28:00,
2013-03-13 09:33:00,51.6,29.3,29.85,South,171,4.9,7.6,42,0.00,,---,0.00,VWS V14.01,2013-03-13 16:33:00,
2013-03-13 09:39:00,51.6,29.9,29.85,South,179,5.8,6.3,43,0.00,,---,0.00,VWS V14.01,2013-03-13 16:39:00,
2013-03-13 09:44:00,51.6,29.3,29.85,NNW,338,8.3,8.3,42,0.00,,---,0.00,VWS V14.01,2013-03-13 16:44:00,
2013-03-13 09:49:00,51.6,29.9,29.85,SW,228,3.6,6.3,43,0.00,,---,0.00,VWS V14.01,2013-03-13 16:49:00,
2013-03-13 09:54:00,51.6,29.9,29.85,SW,224,3.1,6.3,43,0.00,,---,0.00,VWS V14.01,2013-03-13 16:54:00,
2013-03-13 10:00:00,51.6,29.9,29.85,South,169,5.8,5.8,43,0.00,,---,0.00,VWS V14.01,2013-03-13 17:00:00,
2013-03-13 10:05:00,51.6,29.9,29.85,SE,135,4.0,7.6,43,0.00,,---,0.00,VWS V14.01,2013-03-13 17:05:00,
2013-03-13 10:12:00,51.6,30.4,29.85,SSW,196,4.0,4.9,44,0.00,,---,0.00,VWS V14.01,2013-03-13 17:12:00,
2013-03-13 10:18:00,51.4,30.8,29.85,ESE,116,5.8,6.3,45,0.00,,---,0.00,VWS V14.01,2013-03-13 17:18:00,
2013-03-13 10:24:00,51.4,31.4,29.85,South,172,0.0,5.8,46,0.00,,---,0.00,VWS V14.01,2013-03-13 17:24:00,
2013-03-13 10:30:00,51.3,31.2,29.85,NW,306,4.9,4.9,46,0.00,,---,0.00,VWS V14.01,2013-03-13 17:30:00,
2013-03-13 10:36:00,51.3,31.2,29.85,SW,218,5.8,6.7,46,0.00,,---,0.00,VWS V14.01,2013-03-13 17:36:00,
2013-03-13 10:42:00,51.3,31.7,29.85,South,169,0.0,0.0,47,0.00,,---,0.00,VWS V14.01,2013-03-13 17:42:00,
2013-03-13 10:47:00,51.1,32.1,29.85,East,86,3.1,3.6,48,0.00,,---,0.00,VWS V14.01,2013-03-13 17:47:00,
2013-03-13 10:53:00,51.1,32.1,29.85,SSE,157,5.8,5.8,48,0.00,,---,0.00,VWS V14.01,2013-03-13 17:53:00,
2013-03-13 10:58:00,50.9,32.4,29.85,South,183,3.1,3.1,49,0.00,,---,0.00,VWS V14.01,2013-03-13 17:58:00,
2013-03-13 11:04:00,50.9,32.9,29.85,South,184,6.3,6.3,50,0.04,,---,0.04,VWS V14.01,2013-03-13 18:04:00,
2013-03-13 11:09:00,50.9,32.4,29.85,SSW,205,2.7,6.3,49,0.04,,---,0.04,VWS V14.01,2013-03-13 18:09:00,
2013-03-13 11:14:00,50.9,32.9,29.85,SSW,200,5.4,5.8,50,0.04,,---,0.04,VWS V14.01,2013-03-13 18:14:00,
2013-03-13 11:20:00,50.9,32.9,29.85,SSE,149,2.2,5.4,50,0.04,,---,0.04,VWS V14.01,2013-03-13 18:20:00,
2013-03-13 11:25:00,50.7,32.8,29.85,SSE,165,2.7,4.9,50,0.04,,---,0.04,VWS V14.01,2013-03-13 18:25:00,
2013-03-13 11:31:00,50.9,32.9,29.85,SW,215,5.8,5.8,50,0.04,,---,0.04,VWS V14.01,2013-03-13 18:31:00,
2013-03-13 11:37:00,50.9,32.9,29.85,South,177,3.1,5.8,50,0.04,,---,0.04,VWS V14.01,2013-03-13 18:37:00,
2013-03-13 11:42:00,50.7,32.3,29.85,North,353,5.8,8.1,49,0.04,,---,0.04,VWS V14.01,2013-03-13 18:42:00,
2013-03-13 11:48:00,50.5,32.1,29.85,SSE,161,4.0,6.3,49,0.04,,---,0.04,VWS V14.01,2013-03-13 18:48:00,
2013-03-13 11:54:00,50.5,32.6,29.85,SSW,194,6.3,8.7,50,0.04,,---,0.04,VWS V14.01,2013-03-13 18:54:00,
2013-03-13 12:00:00,50.5,33.1,29.85,South,176,8.3,8.3,51,0.04,,---,0.04,VWS V14.01,2013-03-13 19:00:00,
2013-03-13 12:06:00,50.5,33.6,29.85,South,186,8.1,8.7,52,0.00,,---,0.04,VWS V14.01,2013-03-13 19:06:00,
2013-03-13 12:11:00,50.5,33.6,29.85,South,180,5.8,7.6,52,0.00,,---,0.04,VWS V14.01,2013-03-13 19:11:00,
2013-03-13 12:17:00,50.5,33.6,29.85,WSW,251,10.1,10.1,52,0.04,,---,0.08,VWS V14.01,2013-03-13 19:17:00,
2013-03-13 12:22:00,50.5,33.1,29.85,SSW,201,4.9,9.6,51,0.04,,---,0.08,VWS V14.01,2013-03-13 19:22:00,
2013-03-13 12:28:00,50.5,33.1,29.85,South,180,8.1,8.1,51,0.04,,---,0.08,VWS V14.01,2013-03-13 19:28:00,
2013-03-13 12:33:00,50.7,32.8,29.83,South,181,2.2,7.2,50,0.04,,---,0.08,VWS V14.01,2013-03-13 19:33:00,
2013-03-13 12:39:00,50.7,33.3,29.83,South,185,2.7,5.4,51,0.04,,---,0.08,VWS V14.01,2013-03-13 19:39:00,
2013-03-13 12:45:00,51.1,34.1,29.85,NNW,334,2.2,2.7,52,0.04,,---,0.08,VWS V14.01,2013-03-13 19:45:00,
2013-03-13 12:50:00,51.1,33.6,29.85,East,96,2.7,4.9,51,0.04,,---,0.08,VWS V14.01,2013-03-13 19:50:00,
2013-03-13 12:56:00,51.1,34.1,29.85,SE,131,7.2,7.2,52,0.04,,---,0.08,VWS V14.01,2013-03-13 19:56:00,
2013-03-13 13:02:00,51.1,33.6,29.85,SSE,148,2.2,4.0,51,0.04,,---,0.08,VWS V14.01,2013-03-13 20:02:00,
2013-03-13 13:07:00,51.3,34.2,29.85,SE,141,8.3,8.3,52,0.08,,---,0.12,VWS V14.01,2013-03-13 20:07:00,
2013-03-13 13:12:00,51.1,33.6,29.85,NNW,331,2.7,5.8,51,0.08,,---,0.12,VWS V14.01,2013-03-13 20:12:00,
2013-03-13 13:18:00,51.1,34.1,29.85,South,186,5.4,5.8,52,0.04,,---,0.12,VWS V14.01,2013-03-13 20:18:00,
2013-03-13 13:24:00,51.3,34.2,29.85,SSE,158,3.1,4.9,52,0.04,,---,0.12,VWS V14.01,2013-03-13 20:24:00,
2013-03-13 13:30:00,51.3,34.7,29.85,SSW,202,3.6,5.4,53,0.04,,---,0.12,VWS V14.01,2013-03-13 20:30:00,
2013-03-13 13:35:00,51.3,35.2,29.85,South,190,4.9,5.4,54,0.04,,---,0.12,VWS V14.01,2013-03-13 20:35:00,
2013-03-13 13:41:00,51.3,35.2,29.85,ESE,111,3.6,5.4,54,0.04,,---,0.12,VWS V14.01,2013-03-13 20:41:00,
2013-03-13 13:47:00,51.3,35.2,29.85,South,179,5.4,7.6,54,0.04,,---,0.12,VWS V14.01,2013-03-13 20:47:00,
2013-03-13 13:52:00,51.3,34.7,29.85,SW,228,4.0,4.5,53,0.04,,---,0.12,VWS V14.01,2013-03-13 20:52:00,
2013-03-13 13:58:00,51.3,34.2,29.85,South,178,3.6,6.3,52,0.04,,---,0.12,VWS V14.01,2013-03-13 20:58:00,
2013-03-13 14:03:00,51.1,34.6,29.85,South,189,5.8,8.1,53,0.08,,---,0.16,VWS V14.01,2013-03-13 21:03:00,
2013-03-13 14:08:00,51.3,35.2,29.85,SSW,204,3.1,5.4,54,0.04,,---,0.16,VWS V14.01,2013-03-13 21:08:00,
2013-03-13 14:13:00,51.3,36.1,29.85,South,181,6.3,7.6,56,0.04,,---,0.16,VWS V14.01,2013-03-13 21:13:00,
2013-03-13 14:19:00,51.4,35.8,29.85,SSW,208,5.8,7.2,55,0.04,,---,0.16,VWS V14.01,2013-03-13 21:19:00,
2013-03-13 14:24:00,51.4,36.7,29.85,South,184,8.1,8.3,57,0.04,,---,0.16,VWS V14.01,2013-03-13 21:24:00,
2013-03-13 14:30:00,51.4,36.7,29.85,SE,133,6.3,8.3,57,0.04,,---,0.16,VWS V14.01,2013-03-13 21:30:00,
2013-03-13 14:35:00,51.6,36.0,29.85,West,259,2.7,8.7,55,0.04,,---,0.16,VWS V14.01,2013-03-13 21:35:00,
2013-03-13 14:41:00,51.6,36.0,29.85,SSW,213,6.3,7.2,55,0.04,,---,0.16,VWS V14.01,2013-03-13 21:41:00,
2013-03-13 14:46:00,51.4,35.8,29.83,SSW,209,8.1,8.1,55,0.04,,---,0.16,VWS V14.01,2013-03-13 21:46:00,
2013-03-13 14:52:00,51.4,36.7,29.83,West,261,2.7,3.6,57,0.04,,---,0.16,VWS V14.01,2013-03-13 21:52:00,
2013-03-13 14:57:00,51.4,36.3,29.83,SSW,209,5.8,5.8,56,0.04,,---,0.16,VWS V14.01,2013-03-13 21:57:00,
2013-03-13 15:02:00,51.6,36.5,29.83,South,185,5.8,6.3,56,0.00,,---,0.16,VWS V14.01,2013-03-13 22:02:00,
2013-03-13 15:08:00,51.6,36.0,29.83,South,187,3.6,4.9,55,0.00,,---,0.16,VWS V14.01,2013-03-13 22:08:00,
2013-03-13 15:13:00,51.6,36.9,29.83,South,184,4.0,5.4,57,0.00,,---,0.16,VWS V14.01,2013-03-13 22:13:00,
2013-03-13 15:18:00,51.6,36.9,29.83,SW,223,2.2,4.9,57,0.00,,---,0.16,VWS V14.01,2013-03-13 22:18:00,
2013-03-13 15:23:00,51.8,37.5,29.83,SSW,199,3.1,5.4,58,0.00,,---,0.16,VWS V14.01,2013-03-13 22:23:00,
2013-03-13 15:29:00,51.8,37.5,29.83,South,182,3.6,4.9,58,0.00,,---,0.16,VWS V14.01,2013-03-13 22:29:00,
2013-03-13 15:34:00,51.8,37.1,29.83,SSE,168,4.0,5.4,57,0.04,,---,0.20,VWS V14.01,2013-03-13 22:34:00,
2013-03-13 15:40:00,51.8,37.1,29.83,SSW,207,4.0,5.8,57,0.04,,---,0.20,VWS V14.01,2013-03-13 22:40:00,
2013-03-13 15:45:00,51.8,37.5,29.83,SSW,204,5.4,6.3,58,0.04,,---,0.20,VWS V14.01,2013-03-13 22:45:00,
2013-03-13 15:52:00,51.8,37.9,29.83,SSW,208,5.4,5.4,59,0.04,,---,0.20,VWS V14.01,2013-03-13 22:52:00,
2013-03-13 15:57:00,51.8,37.5,29.83,South,176,4.0,5.8,58,0.04,,---,0.20,VWS V14.01,2013-03-13 22:57:00,
2013-03-13 16:02:00,52.0,38.1,29.83,SSW,204,8.1,8.1,59,0.04,,---,0.20,VWS V14.01,2013-03-13 23:02:00,
2013-03-13 16:08:00,52.0,37.2,29.83,SSW,207,3.6,5.4,57,0.04,,---,0.20,VWS V14.01,2013-03-13 23:08:00,
2013-03-13 16:14:00,52.0,38.1,29.83,SSW,196,4.0,5.8,59,0.04,,---,0.20,VWS V14.01,2013-03-13 23:14:00,
2013-03-13 16:19:00,52.0,37.7,29.83,SSW,195,5.4,5.8,58,0.04,,---,0.20,VWS V14.01,2013-03-13 23:19:00,
2013-03-13 16:25:00,51.8,36.6,29.83,SW,218,5.8,6.7,56,0.04,,---,0.20,VWS V14.01,2013-03-13 23:25:00,
2013-03-13 16:30:00,51.8,36.2,29.83,SSE,168,6.3,7.2,55,0.04,,---,0.20,VWS V14.01,2013-03-13 23:30:00,
2013-03-13 16:35:00,51.8,36.2,29.83,SW,215,8.1,8.1,55,0.00,,---,0.20,VWS V14.01,2013-03-13 23:35:00,
2013-03-13 16:40:00,51.8,36.6,29.83,SSW,213,5.4,5.8,56,0.00,,---,0.20,VWS V14.01,2013-03-13 23:40:00,
2013-03-13 16:46:00,51.8,37.1,29.83,SSW,210,4.0,4.0,57,0.00,,---,0.20,VWS V14.01,2013-03-13 23:46:00,
2013-03-13 16:51:00,51.8,37.5,29.83,SSW,209,3.6,6.3,58,0.00,,---,0.20,VWS V14.01,2013-03-13 23:51:00,
2013-03-13 16:56:00,52.0,38.5,29.83,SSW,209,3.6,4.0,60,0.00,,---,0.20,VWS V14.01,2013-03-13 23:56:00,
2013-03-13 17:01:00,52.0,39.8,29.83,SSW,195,3.1,3.1,63,0.00,,---,0.20,VWS V14.01,2013-03-14 00:01:00,
2013-03-13 17:06:00,51.8,39.2,29.83,SSW,196,3.6,5.4,62,0.00,,---,0.20,VWS V14.01,2013-03-14 00:06:00,
2013-03-13 17:11:00,51.8,38.4,29.83,SSW,204,3.1,6.3,60,0.00,,---,0.20,VWS V14.01,2013-03-14 00:11:00,
2013-03-13 17:17:00,51.8,39.2,29.80,South,189,0.0,2.7,62,0.00,,---,0.20,VWS V14.01,2013-03-14 00:17:00,
2013-03-13 17:22:00,51.8,40.0,29.80,SSW,201,3.6,5.4,64,0.00,,---,0.20,VWS V14.01,2013-03-14 00:22:00,
2013-03-13 17:28:00,51.8,40.8,29.80,SSW,200,3.6,5.4,66,0.00,,---,0.20,VWS V14.01,2013-03-14 00:28:00,
2013-03-13 17:33:00,51.6,41.4,29.80,SSE,150,3.1,4.0,68,0.00,,---,0.20,VWS V14.01,2013-03-14 00:33:00,
2013-03-13 17:39:00,51.6,42.5,29.80,SSW,194,4.0,4.0,71,0.00,,---,0.20,VWS V14.01,2013-03-14 00:39:00,
2013-03-13 17:44:00,51.6,43.3,29.80,South,186,2.7,3.6,73,0.00,,---,0.20,VWS V14.01,2013-03-14 00:44:00,
2013-03-13 17:50:00,51.6,42.9,29.80,SW,218,2.7,5.4,72,0.00,,---,0.20,VWS V14.01,2013-03-14 00:50:00,
2013-03-13 17:56:00,51.6,42.9,29.80,South,191,3.1,4.0,72,0.00,,---,0.20,VWS V14.01,2013-03-14 00:56:00,
2013-03-13 18:02:00,51.4,42.4,29.80,South,190,5.4,6.3,71,0.00,,---,0.20,VWS V14.01,2013-03-14 01:02:00,
2013-03-13 18:08:00,51.4,42.0,29.80,SSW,206,5.4,5.4,70,0.00,,---,0.20,VWS V14.01,2013-03-14 01:08:00,
2013-03-13 18:13:00,51.4,41.6,29.80,SSW,207,4.0,5.8,69,0.00,,---,0.20,VWS V14.01,2013-03-14 01:13:00,
2013-03-13 18:19:00,51.6,41.8,29.80,South,191,2.2,3.1,69,0.00,,---,0.20,VWS V14.01,2013-03-14 01:19:00,
2013-03-13 18:25:00,51.6,41.4,29.80,SSW,195,2.7,2.7,68,0.00,,---,0.20,VWS V14.01,2013-03-14 01:25:00,
2013-03-13 18:31:00,51.6,41.4,29.80,SSW,213,4.0,4.9,68,0.00,,---,0.20,VWS V14.01,2013-03-14 01:31:00,
2013-03-13 18:36:00,51.6,41.0,29.80,SSW,209,4.0,4.5,67,0.00,,---,0.20,VWS V14.01,2013-03-14 01:36:00,
2013-03-13 18:41:00,51.4,41.2,29.80,SSW,195,2.7,3.6,68,0.00,,---,0.20,VWS V14.01,2013-03-14 01:41:00,
2013-03-13 18:47:00,51.4,42.0,29.80,SSW,202,3.1,4.0,70,0.00,,---,0.20,VWS V14.01,2013-03-14 01:47:00,
2013-03-13 18:53:00,51.4,42.4,29.80,SSW,202,4.5,4.5,71,0.00,,---,0.20,VWS V14.01,2013-03-14 01:53:00,
2013-03-13 18:59:00,51.4,42.7,29.80,SSW,204,3.6,3.6,72,0.00,,---,0.20,VWS V14.01,2013-03-14 01:59:00,
2013-03-13 19:04:00,51.3,42.9,29.80,SSW,199,5.4,5.4,73,0.00,,---,0.20,VWS V14.01,2013-03-14 02:04:00,
2013-03-13 19:10:00,51.3,42.9,29.80,SW,224,2.7,4.0,73,0.00,,---,0.20,VWS V14.01,2013-03-14 02:10:00,
2013-03-13 19:16:00,51.3,42.9,29.80,SSW,206,0.0,0.0,73,0.00,,---,0.20,VWS V14.01,2013-03-14 02:16:00,
2013-03-13 19:21:00,51.3,42.9,29.80,SW,220,0.0,0.0,73,0.00,,---,0.20,VWS V14.01,2013-03-14 02:21:00,
2013-03-13 19:26:00,51.3,42.9,29.80,South,180,2.7,3.6,73,0.00,,---,0.20,VWS V14.01,2013-03-14 02:26:00,
2013-03-13 19:32:00,51.3,42.9,29.80,SSW,204,0.0,4.0,73,0.00,,---,0.20,VWS V14.01,2013-03-14 02:32:00,
2013-03-13 19:37:00,51.3,42.9,29.80,SSW,193,3.6,3.6,73,0.00,,---,0.20,VWS V14.01,2013-03-14 02:37:00,
2013-03-13 19:42:00,51.3,42.9,29.80,SSW,197,3.1,4.0,73,0.00,,---,0.20,VWS V14.01,2013-03-14 02:42:00,
2013-03-13 19:48:00,51.3,42.9,29.80,SSW,201,3.1,3.1,73,0.00,,---,0.20,VWS V14.01,2013-03-14 02:48:00,
2013-03-13 19:53:00,51.3,42.9,29.80,SSW,207,2.7,3.1,73,0.00,,---,0.20,VWS V14.01,2013-03-14 02:53:00,
2013-03-13 19:59:00,51.3,43.3,29.80,SSW,209,0.0,0.0,74,0.00,,---,0.20,VWS V14.01,2013-03-14 02:59:00,
2013-03-13 20:04:00,51.1,43.4,29.80,SSW,209,3.1,3.6,75,0.00,,---,0.20,VWS V14.01,2013-03-14 03:04:00,
2013-03-13 20:10:00,51.1,43.4,29.80,SSW,202,3.6,3.6,75,0.00,,---,0.20,VWS V14.01,2013-03-14 03:10:00,
2013-03-13 20:15:00,51.1,43.8,29.77,SSW,209,4.0,5.8,76,0.00,,---,0.20,VWS V14.01,2013-03-14 03:15:00,
2013-03-13 20:20:00,51.1,44.1,29.77,SSW,193,3.6,3.6,77,0.00,,---,0.20,VWS V14.01,2013-03-14 03:20:00,
2013-03-13 20:26:00,51.3,44.6,29.77,South,177,0.0,2.7,78,0.00,,---,0.20,VWS V14.01,2013-03-14 03:26:00,
2013-03-13 20:31:00,51.3,44.3,29.77,South,181,2.7,3.6,77,0.00,,---,0.20,VWS V14.01,2013-03-14 03:31:00,
2013-03-13 20:37:00,51.3,44.3,29.77,South,182,0.0,0.0,77,0.00,,---,0.20,VWS V14.01,2013-03-14 03:37:00,
2013-03-13 20:42:00,51.3,44.0,29.77,SW,228,4.9,4.9,76,0.00,,---,0.20,VWS V14.01,2013-03-14 03:42:00,
2013-03-13 20:47:00,51.3,44.0,29.77,SSW,197,2.7,4.9,76,0.00,,---,0.20,VWS V14.01,2013-03-14 03:47:00,
2013-03-13 20:52:00,51.3,44.0,29.77,SSW,197,3.1,4.9,76,0.00,,---,0.20,VWS V14.01,2013-03-14 03:52:00,
2013-03-13 20:57:00,51.3,43.6,29.77,SW,218,3.6,3.6,75,0.00,,---,0.20,VWS V14.01,2013-03-14 03:57:00,
2013-03-13 21:00:00,51.1,43.1,29.80,SSE,168,3.1,3.1,74,0.00,,---,0.20,VWS V14.01,2013-03-14 04:00:00,
2013-03-13 21:01:00,51.3,42.9,29.80,SSE,168,0.0,3.1,73,0.00,,---,0.20,VWS V14.01,2013-03-14 04:01:00,
2013-03-13 21:02:00,51.3,42.9,29.80,SSE,168,0.0,0.0,73,0.00,,---,0.20,VWS V14.01,2013-03-14 04:02:00,
2013-03-13 21:07:00,51.3,42.9,29.80,South,169,0.0,0.0,73,0.00,,---,0.20,VWS V14.01,2013-03-14 04:07:00,
2013-03-13 21:13:00,51.3,42.9,29.80,West,265,0.0,2.7,73,0.00,,---,0.20,VWS V14.01,2013-03-14 04:13:00,
2013-03-13 21:19:00,51.3,42.5,29.77,SSW,193,0.0,0.0,72,0.00,,---,0.20,VWS V14.01,2013-03-14 04:19:00,
2013-03-13 21:21:00,51.1,42.0,29.77,South,174,3.6,3.6,71,0.00,,---,0.20,VWS V14.01,2013-03-14 04:21:00,
2013-03-13 21:27:00,51.1,41.7,29.77,South,182,2.7,3.6,70,0.00,,---,0.20,VWS V14.01,2013-03-14 04:27:00,
2013-03-13 21:32:00,50.9,41.5,29.77,SSW,211,3.1,4.0,70,0.00,,---,0.20,VWS V14.01,2013-03-14 04:32:00,
2013-03-13 21:37:00,50.9,41.8,29.77,SSW,206,0.0,0.0,71,0.00,,---,0.20,VWS V14.01,2013-03-14 04:37:00,
2013-03-13 21:42:00,50.9,42.2,29.77,SSW,194,0.0,2.2,72,0.00,,---,0.20,VWS V14.01,2013-03-14 04:42:00,
2013-03-13 21:47:00,50.9,42.2,29.80,South,187,0.0,2.7,72,0.00,,---,0.20,VWS V14.01,2013-03-14 04:47:00,
2013-03-13 21:52:00,50.9,42.2,29.80,SSW,211,4.0,4.0,72,0.00,,---,0.20,VWS V14.01,2013-03-14 04:52:00,
2013-03-13 21:58:00,50.9,42.2,29.80,SSW,199,2.2,3.6,72,0.00,,---,0.20,VWS V14.01,2013-03-14 04:58:00,
2013-03-13 22:03:00,50.9,42.2,29.77,SSW,199,0.0,0.0,72,0.00,,---,0.20,VWS V14.01,2013-03-14 05:03:00,
2013-03-13 22:09:00,50.7,42.4,29.77,South,181,0.0,3.1,73,0.00,,---,0.20,VWS V14.01,2013-03-14 05:09:00,
2013-03-13 22:14:00,50.5,42.9,29.77,SSW,196,2.7,3.6,75,0.00,,---,0.20,VWS V14.01,2013-03-14 05:14:00,
2013-03-13 22:19:00,50.5,43.3,29.77,SSW,196,4.0,4.0,76,0.00,,---,0.20,VWS V14.01,2013-03-14 05:19:00,
2013-03-13 22:25:00,50.5,43.6,29.77,SSW,196,0.0,0.0,77,0.00,,---,0.20,VWS V14.01,2013-03-14 05:25:00,
2013-03-13 22:30:00,50.5,44.0,29.77,SSW,196,0.0,0.0,78,0.00,,---,0.20,VWS V14.01,2013-03-14 05:30:00,
2013-03-13 22:35:00,50.4,44.1,29.77,SSW,201,3.1,3.1,79,0.00,,---,0.20,VWS V14.01,2013-03-14 05:35:00,
2013-03-13 22:42:00,50.4,44.1,29.77,SSW,198,2.2,3.6,79,0.00,,---,0.20,VWS V14.01,2013-03-14 05:42:00,
2013-03-13 22:48:00,50.4,44.4,29.77,South,190,2.2,2.2,80,0.00,,---,0.20,VWS V14.01,2013-03-14 05:48:00,
2013-03-13 22:54:00,50.4,44.8,29.77,South,190,0.0,0.0,81,0.00,,---,0.20,VWS V14.01,2013-03-14 05:54:00,
2013-03-13 23:00:00,50.4,44.4,29.77,WSW,239,0.0,0.0,80,0.00,,---,0.20,VWS V14.01,2013-03-14 06:00:00,
2013-03-13 23:05:00,50.4,44.8,29.77,WNW,303,2.7,3.1,81,0.00,,---,0.20,VWS V14.01,2013-03-14 06:05:00,
2013-03-13 23:11:00,50.7,45.1,29.77,NW,315,2.7,4.0,81,0.00,,---,0.20,VWS V14.01,2013-03-14 06:11:00,
2013-03-13 23:16:00,50.9,45.3,29.77,NW,311,0.0,3.6,81,0.00,,---,0.20,VWS V14.01,2013-03-14 06:16:00,
2013-03-13 23:22:00,50.7,44.5,29.77,South,176,0.0,0.0,79,0.00,,---,0.20,VWS V14.01,2013-03-14 06:22:00,
2013-03-13 23:27:00,50.5,44.0,29.77,SSW,202,0.0,0.0,78,0.00,,---,0.20,VWS V14.01,2013-03-14 06:27:00,
2013-03-13 23:33:00,50.5,43.6,29.77,SSE,167,2.2,4.0,77,0.00,,---,0.20,VWS V14.01,2013-03-14 06:33:00,
2013-03-13 23:39:00,50.5,42.9,29.77,SSE,167,0.0,0.0,75,0.00,,---,0.20,VWS V14.01,2013-03-14 06:39:00,
2013-03-13 23:44:00,50.4,42.8,29.77,SSE,167,0.0,0.0,75,0.00,,---,0.20,VWS V14.01,2013-03-14 06:44:00,
2013-03-13 23:50:00,50.2,42.6,29.77,SSE,167,0.0,0.0,75,0.00,,---,0.20,VWS V14.01,2013-03-14 06:50:00,
2013-03-13 23:55:00,50.2,42.6,29.77,SSE,167,0.0,0.0,75,0.00,,---,0.20,VWS V14.01,2013-03-14 06:55:00,